M I D A S
Marine Information and Data Acquisition System
Tripno 183 of the Zeeleeuw from 2001-12-04 09:15:00 to 2001-12-04 16:20:00
Back to CruiseResearch ActivitiesStationsMapUnderway DataData graphs

EquipmentUnitsComments
TimeDGPSUTC
LatitudeDGPSDM.mWGS84
LongitudeDGPSDM.mWGS84
SpeedMeteo Stationm/sRelative wind speed
DirectionMeteo StationdegRelative wind direction
TemperatureMeteo Stationdeg CelciusAir temperature
PressureMeteo StationPaAtmospheric pressure
HumidityMeteo Station%Relative humidity
Missing or incorrect values are displayed as -999
Metereological data collected by the RV Zeeleeuw from 2001-12-04 09:15:00 to 2001-12-04 16:20:00
                                                                                    Next 1000 lines
Time Latitude Longitude Speed Direction Temperature Pressure Humidity
2001-12-04 09:15:06 51°13.427 2°50.826 0.9 87 10.8 100830 84
2001-12-04 09:15:12 51°13.427 2°50.826 1.9 93 10.8 100820 85
2001-12-04 09:15:17 51°13.426 2°50.825 1 89 10.8 100820 85
2001-12-04 09:15:22 51°13.426 2°50.825 2.4 99 10.8 100820 85
2001-12-04 09:15:26 51°13.426 2°50.824 1.2 86 10.8 100820 85
2001-12-04 09:15:32 51°13.426 2°50.824 4.4 98 10.8 100820 85
2001-12-04 09:15:36 51°13.426 2°50.823 1.2 84 10.8 100820 85
2001-12-04 09:15:42 51°13.426 2°50.823 1.2 74 10.8 100820 85
2001-12-04 09:15:47 51°13.426 2°50.822 5.1 83 10.8 100820 85
2001-12-04 09:15:51 51°13.426 2°50.822 2.8 81 10.8 100820 85
2001-12-04 09:15:57 51°13.426 2°50.822 5.5 98 10.8 100820 85
2001-12-04 09:16:01 51°13.426 2°50.822 1.4 91 10.8 100820 85
2001-12-04 09:16:07 51°13.426 2°50.821 1.6 89 10.8 100820 85
2001-12-04 09:16:12 51°13.426 2°50.821 4.1 99 10.8 100820 85
2001-12-04 09:16:17 51°13.426 2°50.82 0.5 83 10.8 100820 85
2001-12-04 09:16:22 51°13.426 2°50.82 2 102 10.8 100810 85
2001-12-04 09:16:27 51°13.427 2°50.818 1.2 97 10.8 100810 85
2001-12-04 09:16:32 51°13.428 2°50.816 0.3 54 10.8 100820 85
2001-12-04 09:16:37 51°13.429 2°50.813 2.2 309 10.8 100820 85
2001-12-04 09:16:41 51°13.43 2°50.811 3.2 224 10.8 100820 85
2001-12-04 09:16:46 51°13.432 2°50.807 3.5 167 10.8 100820 85
2001-12-04 09:16:52 51°13.433 2°50.801 5.9 320 10.8 100810 85
2001-12-04 09:16:56 51°13.434 2°50.797 5.1 138 10.8 100810 85
2001-12-04 09:17:02 51°13.436 2°50.79 7.8 335 10.8 100820 85
2001-12-04 09:17:06 51°13.437 2°50.786 7.3 12 10.8 100820 85
2001-12-04 09:17:11 51°13.437 2°50.779 9.5 23 10.8 100810 85
2001-12-04 09:17:17 51°13.438 2°50.771 12.7 21 10.8 100810 85
2001-12-04 09:17:22 51°13.438 2°50.764 13.4 24 10.8 100810 85
2001-12-04 09:17:26 51°13.438 2°50.759 13.9 12 10.8 100810 85
2001-12-04 09:17:32 51°13.437 2°50.749 13.2 4 10.8 100810 85
2001-12-04 09:17:37 51°13.435 2°50.74 13.2 349 10.8 100810 85
2001-12-04 09:17:41 51°13.433 2°50.732 13.7 346 10.8 100800 85
2001-12-04 09:17:47 51°13.429 2°50.721 13.2 346 10.8 100800 85
2001-12-04 09:17:52 51°13.425 2°50.711 13.7 336 10.8 100780 85
2001-12-04 09:17:56 51°13.421 2°50.702 13.7 343 10.8 100780 85
2001-12-04 09:18:01 51°13.415 2°50.691 13.8 336 10.8 100790 85
2001-12-04 09:18:07 51°13.408 2°50.676 14.4 340 10.8 100790 85
2001-12-04 09:18:11 51°13.402 2°50.666 13.3 338 10.8 100790 85
2001-12-04 09:18:17 51°13.394 2°50.651 15.3 337 10.8 100790 85
2001-12-04 09:18:21 51°13.387 2°50.641 16.1 333 10.8 100800 85
2001-12-04 09:18:27 51°13.377 2°50.624 17.1 331 10.8 100800 85
2001-12-04 09:18:31 51°13.37 2°50.612 16.8 338 10.8 100790 85
2001-12-04 09:18:37 51°13.358 2°50.595 15.6 336 10.8 100790 85
2001-12-04 09:18:41 51°13.349 2°50.582 15.8 337 10.8 100800 85
2001-12-04 09:18:47 51°13.335 2°50.562 17 338 10.8 100800 85
2001-12-04 09:18:51 51°13.327 2°50.547 17.5 338 10.8 100790 85
2001-12-04 09:18:57 51°13.314 2°50.523 16.2 340 10.8 100790 85
2001-12-04 09:19:02 51°13.304 2°50.501 18.4 340 10.8 100800 85
2001-12-04 09:19:07 51°13.295 2°50.477 18.2 341 10.8 100800 85
2001-12-04 09:19:12 51°13.286 2°50.452 17.5 344 10.8 100780 85
2001-12-04 09:19:17 51°13.277 2°50.427 19.7 347 10.8 100780 85
2001-12-04 09:19:22 51°13.267 2°50.402 18.1 345 10.9 100780 85
2001-12-04 09:19:26 51°13.26 2°50.382 17.8 341 10.9 100780 85
2001-12-04 09:19:32 51°13.248 2°50.351 19.8 346 10.9 100790 85
2001-12-04 09:19:36 51°13.241 2°50.33 18.9 345 10.9 100790 85
2001-12-04 09:19:41 51°13.231 2°50.304 20.2 343 10.9 100770 85
2001-12-04 09:19:47 51°13.22 2°50.272 18.2 347 10.9 100770 85
2001-12-04 09:19:52 51°13.21 2°50.246 19.1 344 10.9 100780 85
2001-12-04 09:19:57 51°13.2 2°50.22 20.4 340 10.9 100780 85
2001-12-04 09:20:01 51°13.192 2°50.199 17.2 347 10.9 100790 85
2001-12-04 09:20:07 51°13.18 2°50.167 19.6 339 10.9 100790 85
2001-12-04 09:20:12 51°13.169 2°50.141 17.9 343 10.9 100780 85
2001-12-04 09:20:17 51°13.159 2°50.115 20.1 344 10.9 100780 85
2001-12-04 09:20:21 51°13.151 2°50.094 17.7 347 10.9 100790 85
2001-12-04 09:20:27 51°13.138 2°50.063 18.9 346 10.9 100790 85
2001-12-04 09:20:32 51°13.127 2°50.037 19.3 339 10.9 100790 85
2001-12-04 09:20:37 51°13.116 2°50.011 19.7 345 10.9 100790 85
2001-12-04 09:20:41 51°13.108 2°49.99 18.3 340 11 100790 85
2001-12-04 09:20:47 51°13.095 2°49.959 18.6 340 11 100790 85
2001-12-04 09:20:52 51°13.084 2°49.932 20 342 11 100770 84
2001-12-04 09:20:57 51°13.074 2°49.906 20.9 341 11 100770 84
2001-12-04 09:21:02 51°13.063 2°49.88 20.4 341 11 100800 84
2001-12-04 09:21:07 51°13.053 2°49.853 19.4 341 11 100800 84
2001-12-04 09:21:12 51°13.042 2°49.827 19.2 342 11 100790 84
2001-12-04 09:21:17 51°13.031 2°49.8 19.6 340 11 100790 84
2001-12-04 09:21:21 51°13.023 2°49.779 20.2 335 11 100780 84
2001-12-04 09:21:27 51°13.011 2°49.747 18.4 342 11 100780 84
2001-12-04 09:21:31 51°13.002 2°49.726 19.9 339 11 100790 84
2001-12-04 09:21:36 51°12.992 2°49.699 20.6 342 11 100790 84
2001-12-04 09:21:41 51°12.981 2°49.672 19.3 342 11 100790 84
2001-12-04 09:21:47 51°12.969 2°49.641 20.6 343 11 100790 84
2001-12-04 09:21:51 51°12.96 2°49.619 19.7 339 11 100780 84
2001-12-04 09:21:56 51°12.95 2°49.593 21.5 338 11 100780 84
2001-12-04 09:22:02 51°12.937 2°49.561 19.5 339 11.1 100760 84
2001-12-04 09:22:07 51°12.927 2°49.534 19.8 338 11.1 100760 84
2001-12-04 09:22:11 51°12.918 2°49.513 18.9 338 11.1 100800 84
2001-12-04 09:22:17 51°12.905 2°49.481 20.4 339 11.1 100800 84
2001-12-04 09:22:22 51°12.895 2°49.454 20.8 337 11.1 100790 84
2001-12-04 09:22:26 51°12.886 2°49.433 21.4 337 11.1 100790 84
2001-12-04 09:22:32 51°12.873 2°49.401 21.5 340 11.1 100790 84
2001-12-04 09:22:36 51°12.865 2°49.38 19.4 341 11.1 100790 84
2001-12-04 09:22:41 51°12.854 2°49.353 20.2 342 11.1 100790 84
2001-12-04 09:22:46 51°12.843 2°49.327 21.5 337 11.1 100790 84
2001-12-04 09:22:52 51°12.831 2°49.295 19.1 338 11.1 100790 84
2001-12-04 09:22:56 51°12.822 2°49.274 20.3 339 11.1 100790 84
2001-12-04 09:23:02 51°12.81 2°49.242 21.2 334 11.2 100800 84
2001-12-04 09:23:07 51°12.799 2°49.215 20.6 344 11.2 100800 84
2001-12-04 09:23:11 51°12.79 2°49.194 18.7 338 11.2 100800 84
2001-12-04 09:23:16 51°12.78 2°49.168 20.8 339 11.2 100800 84
2001-12-04 09:23:22 51°12.767 2°49.136 19.8 338 11.2 100780 84
2001-12-04 09:23:26 51°12.759 2°49.114 17.8 339 11.2 100780 84
2001-12-04 09:23:31 51°12.748 2°49.087 20.4 343 11.2 100790 84
2001-12-04 09:23:37 51°12.735 2°49.055 20.2 338 11.2 100790 84
2001-12-04 09:23:42 51°12.724 2°49.028 20.6 339 11.2 100780 84
2001-12-04 09:23:46 51°12.716 2°49.007 18.6 339 11.2 100780 84
2001-12-04 09:23:51 51°12.705 2°48.98 20.4 341 11.2 100790 84
2001-12-04 09:23:57 51°12.692 2°48.948 19.9 337 11.2 100790 84
2001-12-04 09:24:02 51°12.681 2°48.921 20.5 334 11.2 100780 84
2001-12-04 09:24:07 51°12.671 2°48.894 20 337 11.2 100780 84
2001-12-04 09:24:12 51°12.66 2°48.867 19.7 340 11.2 100800 84
2001-12-04 09:24:16 51°12.652 2°48.846 19.6 344 11.2 100800 84
2001-12-04 09:24:22 51°12.639 2°48.814 20 333 11.2 100800 84
2001-12-04 09:24:27 51°12.628 2°48.787 21.2 337 11.2 100800 84
2001-12-04 09:24:32 51°12.617 2°48.76 19.2 337 11.2 100790 84
2001-12-04 09:24:37 51°12.606 2°48.733 18.9 334 11.2 100790 84
2001-12-04 09:24:42 51°12.596 2°48.706 20.9 342 11.2 100800 84
2001-12-04 09:24:47 51°12.585 2°48.679 18.5 337 11.2 100800 84
2001-12-04 09:24:51 51°12.576 2°48.657 21.3 335 11.2 100800 84
2001-12-04 09:24:57 51°12.564 2°48.625 20.5 337 11.2 100800 84
2001-12-04 09:25:02 51°12.553 2°48.598 21.4 335 11.3 100790 84
2001-12-04 09:25:07 51°12.543 2°48.57 19.4 335 11.3 100790 84
2001-12-04 09:25:12 51°12.532 2°48.544 19 337 11.3 100790 84
2001-12-04 09:25:16 51°12.524 2°48.522 20.6 334 11.3 100790 84
2001-12-04 09:25:21 51°12.513 2°48.495 20.5 337 11.3 100780 84
2001-12-04 09:25:26 51°12.502 2°48.468 20.2 335 11.3 100780 84
2001-12-04 09:25:31 51°12.491 2°48.44 19.4 328 11.3 100800 84
2001-12-04 09:25:37 51°12.479 2°48.408 19.3 330 11.3 100800 84
2001-12-04 09:25:41 51°12.47 2°48.387 18.5 339 11.3 100800 84
2001-12-04 09:25:47 51°12.457 2°48.354 23.1 338 11.3 100800 84
2001-12-04 09:25:52 51°12.447 2°48.327 21.6 338 11.3 100800 84
2001-12-04 09:25:57 51°12.435 2°48.301 19.7 339 11.3 100800 84
2001-12-04 09:26:01 51°12.427 2°48.279 20.5 335 11.3 100790 84
2001-12-04 09:26:06 51°12.416 2°48.253 20.4 335 11.3 100790 84
2001-12-04 09:26:12 51°12.403 2°48.22 20.7 335 11.4 100800 84
2001-12-04 09:26:17 51°12.393 2°48.193 22.2 336 11.4 100800 84
2001-12-04 09:26:22 51°12.382 2°48.167 20.2 338 11.3 100780 83
2001-12-04 09:26:27 51°12.371 2°48.14 21.5 336 11.3 100780 83
2001-12-04 09:26:32 51°12.361 2°48.112 21.7 340 11.4 100800 83
2001-12-04 09:26:37 51°12.35 2°48.085 18.6 338 11.4 100800 83
2001-12-04 09:26:42 51°12.339 2°48.058 20.2 335 11.4 100800 83
2001-12-04 09:26:47 51°12.329 2°48.031 21.6 335 11.4 100800 83
2001-12-04 09:26:51 51°12.32 2°48.01 20.7 335 11.4 100800 83
2001-12-04 09:26:57 51°12.307 2°47.977 20.2 335 11.4 100800 83
2001-12-04 09:27:01 51°12.298 2°47.956 21.2 335 11.4 100800 83
2001-12-04 09:27:06 51°12.288 2°47.929 20.8 333 11.4 100800 83
2001-12-04 09:27:12 51°12.274 2°47.897 21.1 334 11.4 100800 83
2001-12-04 09:27:16 51°12.266 2°47.875 20.3 336 11.4 100800 83
2001-12-04 09:27:21 51°12.255 2°47.848 21.2 335 11.4 100790 83
2001-12-04 09:27:27 51°12.242 2°47.816 20.3 335 11.4 100790 83
2001-12-04 09:27:32 51°12.232 2°47.789 21.1 336 11.4 100820 83
2001-12-04 09:27:36 51°12.223 2°47.768 19.9 337 11.4 100820 83
2001-12-04 09:27:42 51°12.211 2°47.735 19.3 339 11.4 100790 83
2001-12-04 09:27:46 51°12.202 2°47.713 20.5 335 11.4 100790 83
2001-12-04 09:27:52 51°12.189 2°47.681 21.3 338 11.5 100790 83
2001-12-04 09:27:57 51°12.179 2°47.654 21.5 339 11.5 100790 83
2001-12-04 09:28:02 51°12.168 2°47.627 21.1 339 11.5 100780 83
2001-12-04 09:28:07 51°12.157 2°47.6 20.2 336 11.5 100780 83
2001-12-04 09:28:11 51°12.149 2°47.578 20.3 337 11.5 100810 83
2001-12-04 09:28:17 51°12.136 2°47.546 20 331 11.5 100810 83
2001-12-04 09:28:21 51°12.127 2°47.524 20.6 334 11.5 100810 83
2001-12-04 09:28:27 51°12.115 2°47.492 21.5 337 11.5 100810 83
2001-12-04 09:28:32 51°12.104 2°47.465 21.5 335 11.5 100790 83
2001-12-04 09:28:37 51°12.093 2°47.438 22.2 331 11.5 100790 83
2001-12-04 09:28:42 51°12.082 2°47.411 20.3 336 11.5 100790 83
2001-12-04 09:28:47 51°12.072 2°47.384 21.5 335 11.5 100790 83
2001-12-04 09:28:51 51°12.063 2°47.363 20.2 339 11.5 100780 83
2001-12-04 09:28:56 51°12.052 2°47.336 20.6 337 11.5 100780 83
2001-12-04 09:29:01 51°12.042 2°47.309 22.2 336 11.5 100780 83
2001-12-04 09:29:07 51°12.03 2°47.276 19.7 332 11.5 100780 83
2001-12-04 09:29:12 51°12.02 2°47.248 22.2 338 11.5 100800 82
2001-12-04 09:29:16 51°12.012 2°47.226 21 335 11.5 100800 82
2001-12-04 09:29:22 51°12 2°47.192 20.5 334 11.5 100800 82
2001-12-04 09:29:27 51°11.99 2°47.165 19.2 336 11.5 100800 82
2001-12-04 09:29:32 51°11.98 2°47.138 19.1 336 11.5 100780 82
2001-12-04 09:29:36 51°11.972 2°47.115 21 336 11.5 100780 82
2001-12-04 09:29:42 51°11.96 2°47.082 18.9 339 11.5 100790 82
2001-12-04 09:29:46 51°11.952 2°47.06 21.6 335 11.5 100790 82
2001-12-04 09:29:52 51°11.94 2°47.027 20.6 335 11.5 100790 82
2001-12-04 09:29:56 51°11.932 2°47.005 20.7 336 11.5 100790 82
2001-12-04 09:30:02 51°11.921 2°46.971 21.5 335 11.5 100790 82
2001-12-04 09:30:06 51°11.912 2°46.95 20.2 335 11.5 100790 82
2001-12-04 09:30:11 51°11.902 2°46.922 21.9 339 11.5 100800 82
2001-12-04 09:30:17 51°11.89 2°46.889 20.8 334 11.5 100800 82
2001-12-04 09:30:22 51°11.88 2°46.861 20.9 336 11.5 100800 82
2001-12-04 09:30:27 51°11.871 2°46.833 21.7 335 11.5 100800 82
2001-12-04 09:30:32 51°11.861 2°46.806 19.4 341 11.5 100790 82
2001-12-04 09:30:36 51°11.853 2°46.784 21.1 337 11.5 100790 82
2001-12-04 09:30:42 51°11.841 2°46.75 21.4 334 11.5 100780 83
2001-12-04 09:30:47 51°11.831 2°46.722 22 331 11.5 100780 83
2001-12-04 09:30:52 51°11.822 2°46.694 19.2 340 11.5 100800 83
2001-12-04 09:30:57 51°11.812 2°46.667 21.5 333 11.5 100800 83
2001-12-04 09:31:02 51°11.802 2°46.639 20 337 11.5 100790 83
2001-12-04 09:31:07 51°11.792 2°46.611 20.1 334 11.5 100790 83
2001-12-04 09:31:12 51°11.782 2°46.583 23.2 336 11.5 100790 83
2001-12-04 09:31:16 51°11.774 2°46.562 21 335 11.5 100790 83
2001-12-04 09:31:22 51°11.762 2°46.528 23 335 11.5 100800 82
2001-12-04 09:31:27 51°11.753 2°46.5 22.3 336 11.5 100800 82
2001-12-04 09:31:32 51°11.743 2°46.473 20.9 339 11.5 100790 82
2001-12-04 09:31:37 51°11.733 2°46.445 22.9 336 11.5 100790 82
2001-12-04 09:31:41 51°11.725 2°46.423 22 332 11.5 100780 82
2001-12-04 09:31:47 51°11.714 2°46.389 21.7 338 11.5 100780 82
2001-12-04 09:31:51 51°11.706 2°46.367 21.8 334 11.5 100780 82
2001-12-04 09:31:57 51°11.694 2°46.334 22 333 11.5 100780 82
2001-12-04 09:32:02 51°11.685 2°46.305 21.1 333 11.6 100800 82
2001-12-04 09:32:07 51°11.675 2°46.278 21.1 331 11.6 100800 82
2001-12-04 09:32:12 51°11.665 2°46.25 21 336 11.6 100780 82
2001-12-04 09:32:17 51°11.656 2°46.222 20.6 333 11.6 100780 82
2001-12-04 09:32:21 51°11.648 2°46.2 22.4 337 11.6 100780 82
2001-12-04 09:32:27 51°11.637 2°46.167 22.7 339 11.6 100780 82
2001-12-04 09:32:31 51°11.629 2°46.144 21.7 335 11.6 100800 82
2001-12-04 09:32:37 51°11.618 2°46.111 21.6 333 11.6 100800 82
2001-12-04 09:32:42 51°11.608 2°46.083 20.1 334 11.6 100780 82
2001-12-04 09:32:47 51°11.598 2°46.055 21.6 334 11.6 100780 82
2001-12-04 09:32:52 51°11.589 2°46.027 21.2 333 11.6 100810 82
2001-12-04 09:32:56 51°11.581 2°46.005 21.4 335 11.6 100810 82
2001-12-04 09:33:02 51°11.57 2°45.972 20.1 335 11.6 100790 82
2001-12-04 09:33:07 51°11.56 2°45.944 20.8 336 11.6 100790 82
2001-12-04 09:33:12 51°11.55 2°45.917 21.1 333 11.6 100790 82
2001-12-04 09:33:16 51°11.543 2°45.895 23.1 335 11.6 100790 82
2001-12-04 09:33:21 51°11.534 2°45.867 22.1 334 11.6 100800 82
2001-12-04 09:33:27 51°11.522 2°45.834 22.4 334 11.6 100800 82
2001-12-04 09:33:31 51°11.515 2°45.811 23 338 11.6 100800 82
2001-12-04 09:33:37 51°11.503 2°45.778 21.2 336 11.6 100800 82
2001-12-04 09:33:42 51°11.494 2°45.751 20.9 335 11.6 100780 81
2001-12-04 09:33:47 51°11.485 2°45.723 22.6 333 11.6 100780 81
2001-12-04 09:33:52 51°11.475 2°45.695 21 330 11.6 100790 81
2001-12-04 09:33:57 51°11.466 2°45.667 20.8 335 11.6 100790 81
2001-12-04 09:34:02 51°11.457 2°45.639 21.2 332 11.6 100790 81
2001-12-04 09:34:06 51°11.449 2°45.617 21.3 338 11.6 100790 81
2001-12-04 09:34:11 51°11.44 2°45.589 21.9 334 11.6 100810 81
2001-12-04 09:34:16 51°11.431 2°45.561 21.5 335 11.6 100810 81
2001-12-04 09:34:22 51°11.42 2°45.527 19.2 336 11.6 100790 81
2001-12-04 09:34:26 51°11.414 2°45.504 20.2 333 11.6 100790 81
2001-12-04 09:34:31 51°11.405 2°45.476 20.8 338 11.6 100790 81
2001-12-04 09:34:37 51°11.395 2°45.442 22 334 11.6 100790 81
2001-12-04 09:34:42 51°11.386 2°45.414 21.9 335 11.6 100790 81
2001-12-04 09:34:46 51°11.379 2°45.391 23.9 336 11.6 100790 81
2001-12-04 09:34:52 51°11.368 2°45.357 22.9 335 11.6 100790 81
2001-12-04 09:34:56 51°11.361 2°45.335 22 333 11.6 100790 81
2001-12-04 09:35:02 51°11.35 2°45.302 21.6 337 11.6 100780 81
2001-12-04 09:35:07 51°11.342 2°45.273 21.5 333 11.6 100780 81
2001-12-04 09:35:11 51°11.334 2°45.251 20.7 332 11.6 100790 81
2001-12-04 09:35:17 51°11.324 2°45.217 22.8 335 11.6 100790 81
2001-12-04 09:35:21 51°11.317 2°45.195 20 338 11.6 100800 81
2001-12-04 09:35:27 51°11.306 2°45.161 21.9 334 11.6 100800 81
2001-12-04 09:35:31 51°11.299 2°45.138 19.6 335 11.6 100800 81
2001-12-04 09:35:37 51°11.288 2°45.105 21.6 335 11.6 100800 81
2001-12-04 09:35:42 51°11.279 2°45.077 21.6 336 11.6 100790 81
2001-12-04 09:35:46 51°11.272 2°45.054 22.1 333 11.6 100790 81
2001-12-04 09:35:51 51°11.262 2°45.026 20.7 337 11.6 100810 81
2001-12-04 09:35:56 51°11.254 2°44.998 19.9 336 11.6 100810 81
2001-12-04 09:36:02 51°11.243 2°44.964 22.5 340 11.6 100800 81
2001-12-04 09:36:07 51°11.234 2°44.937 21.2 339 11.6 100800 81
2001-12-04 09:36:12 51°11.224 2°44.909 23 334 11.6 100790 81
2001-12-04 09:36:16 51°11.217 2°44.886 22 333 11.6 100790 81
2001-12-04 09:36:21 51°11.208 2°44.858 23.2 335 11.6 100790 81
2001-12-04 09:36:27 51°11.197 2°44.825 24.3 336 11.6 100790 81
2001-12-04 09:36:32 51°11.188 2°44.797 22.9 335 11.6 100810 81
2001-12-04 09:36:36 51°11.181 2°44.774 23 335 11.6 100810 81
2001-12-04 09:36:42 51°11.17 2°44.741 21.8 337 11.6 100800 81
2001-12-04 09:36:47 51°11.161 2°44.713 23 338 11.6 100800 81
2001-12-04 09:36:51 51°11.154 2°44.69 23.1 334 11.6 100810 81
2001-12-04 09:36:56 51°11.145 2°44.662 22.2 337 11.6 100810 81
2001-12-04 09:37:01 51°11.136 2°44.634 23 337 11.6 100810 81
2001-12-04 09:37:06 51°11.127 2°44.606 20.4 336 11.6 100810 81
2001-12-04 09:37:12 51°11.117 2°44.573 21.2 338 11.6 100800 81
2001-12-04 09:37:16 51°11.109 2°44.55 20 335 11.6 100800 81
2001-12-04 09:37:22 51°11.098 2°44.517 19.6 333 11.6 100790 81
2001-12-04 09:37:27 51°11.09 2°44.488 20.9 335 11.6 100790 81
2001-12-04 09:37:31 51°11.083 2°44.466 21.3 335 11.6 100820 81
2001-12-04 09:37:37 51°11.072 2°44.433 21.9 337 11.6 100820 81
2001-12-04 09:37:42 51°11.063 2°44.405 21.1 335 11.6 100800 81
2001-12-04 09:37:47 51°11.054 2°44.377 21.9 335 11.6 100800 81
2001-12-04 09:37:51 51°11.046 2°44.354 20.8 336 11.6 100810 81
2001-12-04 09:37:57 51°11.036 2°44.321 19.3 336 11.6 100810 81
2001-12-04 09:38:01 51°11.028 2°44.298 21.2 337 11.6 100800 81
2001-12-04 09:38:06 51°11.02 2°44.271 20.5 337 11.6 100800 81
2001-12-04 09:38:11 51°11.011 2°44.242 21.1 335 11.6 100810 81
2001-12-04 09:38:17 51°11 2°44.209 21.6 337 11.6 100810 81
2001-12-04 09:38:21 51°10.993 2°44.186 20.1 332 11.6 100810 81
2001-12-04 09:38:26 51°10.984 2°44.158 20.1 337 11.6 100810 81
2001-12-04 09:38:32 51°10.974 2°44.124 20.7 340 11.6 100810 82
2001-12-04 09:38:37 51°10.966 2°44.096 19.5 340 11.6 100810 82
2001-12-04 09:38:42 51°10.958 2°44.067 20.5 337 11.6 100800 82
2001-12-04 09:38:47 51°10.95 2°44.038 21.2 336 11.6 100800 82
2001-12-04 09:38:52 51°10.942 2°44.01 20.7 335 11.6 100790 82
2001-12-04 09:38:57 51°10.934 2°43.98 21.5 337 11.6 100790 82
2001-12-04 09:39:02 51°10.927 2°43.952 21.9 342 11.6 100820 82
2001-12-04 09:39:07 51°10.919 2°43.923 23.4 339 11.6 100820 82
2001-12-04 09:39:12 51°10.912 2°43.894 22.4 337 11.6 100800 82
2001-12-04 09:39:16 51°10.905 2°43.871 24.2 337 11.6 100800 82
2001-12-04 09:39:21 51°10.898 2°43.842 22 340 11.6 100800 82
2001-12-04 09:39:26 51°10.89 2°43.813 20.6 340 11.6 100800 82
2001-12-04 09:39:31 51°10.883 2°43.784 21.3 344 11.6 100800 82
2001-12-04 09:39:37 51°10.873 2°43.749 21.5 337 11.6 100800 82
2001-12-04 09:39:42 51°10.866 2°43.72 21.4 344 11.6 100800 81
2001-12-04 09:39:46 51°10.86 2°43.697 21.7 343 11.6 100800 81
2001-12-04 09:39:51 51°10.852 2°43.669 23.1 338 11.6 100800 82
2001-12-04 09:39:56 51°10.844 2°43.64 22.9 338 11.6 100800 82
2001-12-04 09:40:02 51°10.835 2°43.605 19.5 338 11.6 100800 82
2001-12-04 09:40:07 51°10.827 2°43.577 18.9 339 11.6 100800 82
2001-12-04 09:40:12 51°10.819 2°43.548 21 338 11.6 100800 81
2001-12-04 09:40:17 51°10.811 2°43.519 21.2 339 11.6 100800 81
2001-12-04 09:40:21 51°10.805 2°43.496 23.2 339 11.6 100810 81
2001-12-04 09:40:27 51°10.796 2°43.462 20.1 344 11.6 100810 81
2001-12-04 09:40:31 51°10.79 2°43.439 24.3 333 11.6 100800 81
2001-12-04 09:40:37 51°10.78 2°43.404 22.3 342 11.6 100800 81
2001-12-04 09:40:41 51°10.774 2°43.382 21.6 337 11.6 100800 81
2001-12-04 09:40:46 51°10.766 2°43.353 21.2 334 11.6 100800 81
2001-12-04 09:40:51 51°10.758 2°43.324 22 335 11.6 100820 81
2001-12-04 09:40:56 51°10.75 2°43.295 22.2 336 11.6 100820 81
2001-12-04 09:41:01 51°10.743 2°43.266 21.8 339 11.6 100810 81
2001-12-04 09:41:07 51°10.733 2°43.232 21 344 11.6 100810 81
2001-12-04 09:41:12 51°10.726 2°43.203 22.3 340 11.6 100800 81
2001-12-04 09:41:16 51°10.72 2°43.18 22.5 341 11.6 100800 81
2001-12-04 09:41:22 51°10.711 2°43.145 23.2 339 11.6 100790 81
2001-12-04 09:41:27 51°10.704 2°43.116 23.1 336 11.6 100790 81
2001-12-04 09:41:31 51°10.699 2°43.093 23.2 340 11.6 100800 81
2001-12-04 09:41:36 51°10.692 2°43.064 23.9 342 11.6 100800 81
2001-12-04 09:41:42 51°10.683 2°43.029 22.2 341 11.7 100810 81
2001-12-04 09:41:47 51°10.676 2°43 18.3 337 11.7 100810 81
2001-12-04 09:41:52 51°10.669 2°42.971 19.9 338 11.7 100800 80
2001-12-04 09:41:57 51°10.662 2°42.942 20.6 337 11.7 100800 80
2001-12-04 09:42:02 51°10.655 2°42.913 21.9 336 11.7 100810 80
2001-12-04 09:42:07 51°10.647 2°42.884 23.7 344 11.7 100810 80
2001-12-04 09:42:11 51°10.642 2°42.861 24.4 341 11.7 100820 80
2001-12-04 09:42:16 51°10.635 2°42.832 23.9 332 11.7 100820 80
2001-12-04 09:42:22 51°10.626 2°42.797 23 340 11.7 100820 80
2001-12-04 09:42:27 51°10.619 2°42.768 21.3 342 11.7 100820 80
2001-12-04 09:42:31 51°10.613 2°42.745 25.2 336 11.7 100800 80
2001-12-04 09:42:37 51°10.604 2°42.71 24.1 338 11.7 100800 80
2001-12-04 09:42:41 51°10.599 2°42.687 21 336 11.7 100800 80
2001-12-04 09:42:46 51°10.591 2°42.658 21.9 341 11.7 100800 80
2001-12-04 09:42:52 51°10.583 2°42.623 21.9 340 11.7 100820 79
2001-12-04 09:42:56 51°10.577 2°42.6 21.3 338 11.7 100820 79
2001-12-04 09:43:02 51°10.569 2°42.565 21.4 342 11.7 100810 79
2001-12-04 09:43:07 51°10.562 2°42.536 22.9 339 11.7 100810 79
2001-12-04 09:43:12 51°10.556 2°42.507 23 340 11.7 100790 79
2001-12-04 09:43:16 51°10.551 2°42.483 22.2 338 11.7 100790 79
2001-12-04 09:43:21 51°10.544 2°42.454 21.2 337 11.7 100800 79
2001-12-04 09:43:27 51°10.536 2°42.418 21.9 334 11.7 100800 79
2001-12-04 09:43:32 51°10.53 2°42.389 22 341 11.7 100810 80
2001-12-04 09:43:37 51°10.524 2°42.36 20.3 338 11.7 100810 80
2001-12-04 09:43:42 51°10.517 2°42.33 22 341 11.7 100820 80
2001-12-04 09:43:47 51°10.511 2°42.301 22.7 338 11.7 100820 80
2001-12-04 09:43:51 51°10.506 2°42.277 25.6 334 11.7 100800 80
2001-12-04 09:43:56 51°10.499 2°42.248 26.4 340 11.7 100800 80
2001-12-04 09:44:02 51°10.491 2°42.212 26.3 339 11.7 100810 80
2001-12-04 09:44:07 51°10.485 2°42.183 26.1 342 11.7 100810 80
2001-12-04 09:44:12 51°10.479 2°42.153 25.8 339 11.7 100820 80
2001-12-04 09:44:17 51°10.473 2°42.124 25.5 340 11.7 100820 80
2001-12-04 09:44:22 51°10.466 2°42.095 22.9 340 11.7 100790 79
2001-12-04 09:44:26 51°10.461 2°42.071 23.6 340 11.7 100790 79
2001-12-04 09:44:32 51°10.453 2°42.036 24.8 341 11.7 100800 79
2001-12-04 09:44:37 51°10.446 2°42.007 24 334 11.7 100800 79
2001-12-04 09:44:41 51°10.442 2°41.983 23.8 340 11.7 100790 78
2001-12-04 09:44:47 51°10.433 2°41.948 21.8 343 11.7 100790 78
2001-12-04 09:44:52 51°10.427 2°41.919 22 339 11.8 100810 78
2001-12-04 09:44:57 51°10.42 2°41.889 20.6 340 11.8 100810 78
2001-12-04 09:45:02 51°10.414 2°41.86 20.6 341 11.8 100810 78
2001-12-04 09:45:07 51°10.407 2°41.831 21.5 338 11.8 100810 78
2001-12-04 09:45:12 51°10.4 2°41.802 22 340 11.8 100800 78
2001-12-04 09:45:17 51°10.393 2°41.773 22.9 340 11.8 100800 78
2001-12-04 09:45:22 51°10.387 2°41.743 22.6 339 11.8 100800 79
2001-12-04 09:45:27 51°10.38 2°41.714 23.3 334 11.8 100800 79
2001-12-04 09:45:32 51°10.374 2°41.685 20.9 338 11.8 100810 79
2001-12-04 09:45:36 51°10.369 2°41.661 22.8 336 11.8 100810 79
2001-12-04 09:45:41 51°10.362 2°41.632 22.8 339 11.8 100800 79
2001-12-04 09:45:46 51°10.356 2°41.602 21.1 342 11.8 100800 79
2001-12-04 09:45:52 51°10.348 2°41.567 24.3 340 11.8 100820 79
2001-12-04 09:45:57 51°10.341 2°41.537 21.3 337 11.8 100820 79
2001-12-04 09:46:02 51°10.335 2°41.508 21.4 339 11.8 100810 79
2001-12-04 09:46:06 51°10.33 2°41.484 24 342 11.8 100810 79
2001-12-04 09:46:11 51°10.323 2°41.455 21.2 333 11.8 100810 79
2001-12-04 09:46:16 51°10.317 2°41.426 23.4 337 11.8 100810 79
2001-12-04 09:46:22 51°10.309 2°41.39 20.8 335 11.8 100830 79
2001-12-04 09:46:27 51°10.301 2°41.362 23.6 339 11.8 100830 79
2001-12-04 09:46:32 51°10.293 2°41.333 24.6 334 11.8 100810 79
2001-12-04 09:46:37 51°10.285 2°41.304 22.5 336 11.8 100810 79
2001-12-04 09:46:42 51°10.277 2°41.276 21.6 334 11.8 100830 79
2001-12-04 09:46:47 51°10.268 2°41.248 21.5 335 11.8 100830 79
2001-12-04 09:46:52 51°10.26 2°41.219 22 333 11.8 100820 79
2001-12-04 09:46:57 51°10.251 2°41.191 21.3 334 11.8 100820 79
2001-12-04 09:47:02 51°10.243 2°41.163 21.5 337 11.8 100820 79
2001-12-04 09:47:07 51°10.235 2°41.135 22.2 336 11.8 100820 79
2001-12-04 09:47:12 51°10.226 2°41.107 21.4 333 11.8 100810 79
2001-12-04 09:47:16 51°10.218 2°41.085 23 334 11.8 100810 79
2001-12-04 09:47:21 51°10.21 2°41.058 20.9 334 11.8 100820 79
2001-12-04 09:47:27 51°10.198 2°41.025 21.9 335 11.8 100820 79
2001-12-04 09:47:32 51°10.189 2°40.998 21 335 11.8 100830 79
2001-12-04 09:47:37 51°10.179 2°40.971 22.3 330 11.8 100830 79
2001-12-04 09:47:41 51°10.172 2°40.95 20.4 334 11.8 100820 79
2001-12-04 09:47:47 51°10.159 2°40.918 21.5 330 11.8 100820 79
2001-12-04 09:47:51 51°10.152 2°40.896 21.1 337 11.8 100830 79
2001-12-04 09:47:56 51°10.141 2°40.87 21 334 11.8 100830 79
2001-12-04 09:48:01 51°10.131 2°40.844 22.4 332 11.8 100820 79
2001-12-04 09:48:07 51°10.119 2°40.813 23 332 11.8 100820 79
2001-12-04 09:48:11 51°10.111 2°40.792 21.1 334 11.8 100820 79
2001-12-04 09:48:17 51°10.098 2°40.761 21.7 330 11.8 100820 79
2001-12-04 09:48:22 51°10.088 2°40.736 21.6 334 11.8 100820 79
2001-12-04 09:48:27 51°10.077 2°40.71 23.4 328 11.8 100820 79
2001-12-04 09:48:32 51°10.066 2°40.685 22.3 330 11.8 100810 79
2001-12-04 09:48:37 51°10.055 2°40.66 22.4 331 11.8 100810 79
2001-12-04 09:48:42 51°10.044 2°40.636 21 330 11.8 100830 78
2001-12-04 09:48:47 51°10.033 2°40.611 20.6 332 11.8 100830 78
2001-12-04 09:48:51 51°10.024 2°40.591 19.7 328 11.8 100820 78
2001-12-04 09:48:57 51°10.01 2°40.562 19 329 11.8 100820 78
2001-12-04 09:49:02 51°9.999 2°40.537 21.4 329 11.8 100810 78
2001-12-04 09:49:07 51°9.988 2°40.512 20 334 11.8 100810 78
2001-12-04 09:49:12 51°9.978 2°40.486 20.1 330 11.8 100830 79
2001-12-04 09:49:16 51°9.971 2°40.465 21.2 328 11.8 100830 79
2001-12-04 09:49:22 51°9.959 2°40.433 21.4 332 11.8 100840 79
2001-12-04 09:49:27 51°9.951 2°40.406 23.3 335 11.8 100840 79
2001-12-04 09:49:32 51°9.943 2°40.379 22.6 333 11.8 100830 79
2001-12-04 09:49:37 51°9.936 2°40.35 21.5 340 11.8 100830 79
2001-12-04 09:49:42 51°9.93 2°40.322 22.2 334 11.8 100830 79
2001-12-04 09:49:46 51°9.925 2°40.298 23.7 341 11.8 100830 79
2001-12-04 09:49:51 51°9.92 2°40.269 22.2 338 11.8 100830 79
2001-12-04 09:49:56 51°9.915 2°40.24 20.8 343 11.8 100830 79
2001-12-04 09:50:02 51°9.91 2°40.204 21.8 343 11.8 100840 78
2001-12-04 09:50:07 51°9.905 2°40.175 22.9 340 11.8 100840 78
2001-12-04 09:50:12 51°9.902 2°40.145 21.6 341 11.8 100810 78
2001-12-04 09:50:16 51°9.898 2°40.121 21.6 341 11.8 100810 78
2001-12-04 09:50:22 51°9.892 2°40.086 24.1 340 11.8 100840 78
2001-12-04 09:50:27 51°9.887 2°40.056 22.8 340 11.8 100840 78
2001-12-04 09:50:32 51°9.882 2°40.027 22.4 338 11.8 100810 78
2001-12-04 09:50:36 51°9.878 2°40.003 21.7 335 11.8 100810 78
2001-12-04 09:50:41 51°9.873 2°39.974 21.8 341 11.8 100820 78
2001-12-04 09:50:47 51°9.866 2°39.938 21.6 340 11.8 100820 78
2001-12-04 09:50:51 51°9.861 2°39.915 21.8 337 11.8 100830 78
2001-12-04 09:50:57 51°9.855 2°39.88 22.5 342 11.8 100830 78
2001-12-04 09:51:02 51°9.849 2°39.85 21.4 341 11.8 100840 78
2001-12-04 09:51:07 51°9.843 2°39.821 23.2 342 11.8 100840 78
2001-12-04 09:51:12 51°9.837 2°39.791 21.8 342 11.8 100820 78
2001-12-04 09:51:16 51°9.833 2°39.768 22.7 337 11.8 100820 78
2001-12-04 09:51:22 51°9.826 2°39.732 21.6 339 11.8 100830 78
2001-12-04 09:51:26 51°9.822 2°39.709 22.3 341 11.8 100830 78
2001-12-04 09:51:32 51°9.815 2°39.673 20.8 342 11.8 100830 78
2001-12-04 09:51:37 51°9.809 2°39.644 21.4 343 11.8 100830 78
2001-12-04 09:51:41 51°9.804 2°39.62 22.2 343 11.8 100830 78
2001-12-04 09:51:46 51°9.798 2°39.591 19.9 339 11.8 100830 78
2001-12-04 09:51:52 51°9.791 2°39.555 22.6 343 11.8 100830 78
2001-12-04 09:51:56 51°9.787 2°39.532 20.8 339 11.8 100830 78
2001-12-04 09:52:01 51°9.781 2°39.502 19.9 335 11.8 100840 78
2001-12-04 09:52:07 51°9.774 2°39.467 20.1 342 11.8 100840 78
2001-12-04 09:52:12 51°9.768 2°39.437 24.6 342 11.8 100830 78
2001-12-04 09:52:16 51°9.764 2°39.413 21.5 338 11.8 100830 78
2001-12-04 09:52:22 51°9.758 2°39.378 21.7 342 11.8 100820 78
2001-12-04 09:52:27 51°9.753 2°39.348 24 348 11.8 100820 78
2001-12-04 09:52:32 51°9.748 2°39.318 20.4 339 11.8 100840 78
2001-12-04 09:52:37 51°9.742 2°39.288 21.5 338 11.8 100840 78
2001-12-04 09:52:41 51°9.738 2°39.264 22.1 339 11.8 100830 78
2001-12-04 09:52:47 51°9.732 2°39.228 19.5 340 11.8 100830 78
2001-12-04 09:52:51 51°9.728 2°39.204 20.5 341 11.8 100830 78
2001-12-04 09:52:57 51°9.722 2°39.168 20.5 339 11.8 100830 78
2001-12-04 09:53:02 51°9.717 2°39.138 21.7 341 11.8 100840 78
2001-12-04 09:53:07 51°9.712 2°39.108 21.1 340 11.8 100840 78
2001-12-04 09:53:11 51°9.708 2°39.084 20.4 338 11.8 100840 78
2001-12-04 09:53:16 51°9.703 2°39.054 21.9 339 11.8 100840 78
2001-12-04 09:53:22 51°9.697 2°39.018 19.5 340 11.8 100840 78
2001-12-04 09:53:27 51°9.692 2°38.989 18.6 338 11.8 100840 78
2001-12-04 09:53:31 51°9.687 2°38.964 20.2 342 11.8 100830 78
2001-12-04 09:53:37 51°9.681 2°38.929 21.5 340 11.8 100830 78
2001-12-04 09:53:42 51°9.676 2°38.899 23.4 340 11.8 100830 78
2001-12-04 09:53:46 51°9.672 2°38.875 22.8 340 11.8 100830 78
2001-12-04 09:53:52 51°9.665 2°38.839 20.5 339 11.8 100840 79
2001-12-04 09:53:56 51°9.661 2°38.815 21.8 338 11.8 100840 79
2001-12-04 09:54:02 51°9.655 2°38.778 20.3 338 11.8 100840 79
2001-12-04 09:54:07 51°9.65 2°38.748 20.9 337 11.8 100840 79
2001-12-04 09:54:12 51°9.645 2°38.718 19.5 341 11.8 100840 79
2001-12-04 09:54:16 51°9.64 2°38.694 21.7 342 11.8 100840 79
2001-12-04 09:54:22 51°9.634 2°38.658 21.5 344 11.8 100840 78
2001-12-04 09:54:27 51°9.629 2°38.628 24.2 337 11.8 100840 78
2001-12-04 09:54:31 51°9.625 2°38.604 22.2 342 11.8 100830 79
2001-12-04 09:54:37 51°9.619 2°38.568 22.6 341 11.8 100830 79
2001-12-04 09:54:42 51°9.614 2°38.538 22.3 340 11.8 100840 79
2001-12-04 09:54:47 51°9.609 2°38.508 21.2 340 11.8 100840 79
2001-12-04 09:54:52 51°9.603 2°38.478 22.7 340 11.8 100810 78
2001-12-04 09:54:57 51°9.598 2°38.448 20.9 345 11.8 100810 78
2001-12-04 09:55:02 51°9.593 2°38.418 21.8 342 11.8 100850 78
2001-12-04 09:55:06 51°9.589 2°38.394 21.8 341 11.8 100850 78
2001-12-04 09:55:12 51°9.582 2°38.358 21.1 341 11.8 100820 78
2001-12-04 09:55:17 51°9.577 2°38.329 19.8 339 11.8 100820 78
2001-12-04 09:55:21 51°9.573 2°38.304 19.3 344 11.8 100830 78
2001-12-04 09:55:27 51°9.566 2°38.268 22.4 346 11.8 100830 78
2001-12-04 09:55:32 51°9.561 2°38.238 20.6 343 11.8 100830 78
2001-12-04 09:55:37 51°9.556 2°38.208 22.3 341 11.8 100830 78
2001-12-04 09:55:41 51°9.552 2°38.184 22.3 342 11.8 100840 78
2001-12-04 09:55:47 51°9.546 2°38.148 23.7 337 11.8 100840 78
2001-12-04 09:55:52 51°9.541 2°38.118 22.3 340 11.9 100850 78
2001-12-04 09:55:57 51°9.536 2°38.087 22.2 344 11.9 100850 78
2001-12-04 09:56:01 51°9.531 2°38.063 23.2 343 11.8 100860 78
2001-12-04 09:56:07 51°9.525 2°38.027 22.3 341 11.8 100860 78
2001-12-04 09:56:11 51°9.521 2°38.003 21.2 336 11.9 100840 78
2001-12-04 09:56:17 51°9.515 2°37.967 20.9 334 11.9 100840 78
2001-12-04 09:56:22 51°9.51 2°37.936 22.5 338 11.8 100850 78
2001-12-04 09:56:27 51°9.505 2°37.906 21.6 334 11.8 100850 78
2001-12-04 09:56:32 51°9.5 2°37.876 21.5 338 11.8 100840 78
2001-12-04 09:56:36 51°9.496 2°37.852 22.8 334 11.8 100840 78
2001-12-04 09:56:41 51°9.491 2°37.821 21.6 341 11.9 100850 78
2001-12-04 09:56:47 51°9.485 2°37.785 21.5 339 11.9 100850 78
2001-12-04 09:56:52 51°9.48 2°37.755 23.2 339 11.9 100850 78
2001-12-04 09:56:57 51°9.475 2°37.725 19.6 340 11.9 100850 78
2001-12-04 09:57:02 51°9.47 2°37.695 20.8 332 11.9 100850 78
2001-12-04 09:57:06 51°9.465 2°37.671 21.1 342 11.9 100850 78
2001-12-04 09:57:11 51°9.46 2°37.641 21.2 338 11.9 100850 78
2001-12-04 09:57:17 51°9.454 2°37.605 21.3 334 11.9 100850 78
2001-12-04 09:57:21 51°9.45 2°37.581 21.7 340 11.9 100820 78
2001-12-04 09:57:27 51°9.443 2°37.544 18.8 339 11.9 100820 78
2001-12-04 09:57:32 51°9.438 2°37.515 20.6 339 11.8 100840 78
2001-12-04 09:57:37 51°9.433 2°37.484 21.6 342 11.8 100840 78
2001-12-04 09:57:42 51°9.428 2°37.454 21.9 341 11.9 100850 78
2001-12-04 09:57:46 51°9.424 2°37.43 20.4 341 11.9 100850 78
2001-12-04 09:57:52 51°9.418 2°37.393 20.8 340 11.9 100830 78
2001-12-04 09:57:56 51°9.414 2°37.369 20.8 336 11.9 100830 78
2001-12-04 09:58:01 51°9.409 2°37.339 19 343 11.9 100840 78
2001-12-04 09:58:07 51°9.404 2°37.302 22.5 341 11.9 100840 78
2001-12-04 09:58:12 51°9.399 2°37.272 22.4 345 11.9 100850 78
2001-12-04 09:58:17 51°9.395 2°37.241 21.2 338 11.9 100850 78
2001-12-04 09:58:21 51°9.391 2°37.216 21.9 336 11.9 100840 78
2001-12-04 09:58:27 51°9.386 2°37.18 20.5 341 11.9 100840 78
2001-12-04 09:58:31 51°9.382 2°37.155 21.4 340 11.8 100850 78
2001-12-04 09:58:37 51°9.376 2°37.119 22.6 337 11.8 100850 78
2001-12-04 09:58:42 51°9.371 2°37.088 21.9 341 11.8 100850 78
2001-12-04 09:58:47 51°9.366 2°37.058 21.4 333 11.8 100850 78
2001-12-04 09:58:51 51°9.363 2°37.034 20.3 340 11.8 100840 77
2001-12-04 09:58:57 51°9.357 2°36.997 22.6 339 11.8 100840 77
2001-12-04 09:59:02 51°9.352 2°36.967 20.7 346 11.9 100850 77
2001-12-04 09:59:06 51°9.349 2°36.942 23.6 338 11.9 100850 77
2001-12-04 09:59:12 51°9.343 2°36.906 20.4 341 11.9 100820 77
2001-12-04 09:59:16 51°9.339 2°36.881 20.9 337 11.9 100820 77
2001-12-04 09:59:22 51°9.333 2°36.845 19.9 337 11.8 100840 77
2001-12-04 09:59:26 51°9.329 2°36.82 22 340 11.8 100840 77
2001-12-04 09:59:31 51°9.324 2°36.789 21.1 339 11.8 100840 77
2001-12-04 09:59:37 51°9.319 2°36.753 22.7 333 11.8 100840 77
2001-12-04 09:59:42 51°9.314 2°36.722 22.2 341 11.9 100840 77
2001-12-04 09:59:47 51°9.309 2°36.691 21 343 11.9 100840 77
2001-12-04 09:59:51 51°9.305 2°36.667 18.7 342 11.9 100840 77
2001-12-04 09:59:57 51°9.299 2°36.63 19.5 340 11.9 100840 77
2001-12-04 10:00:01 51°9.295 2°36.605 20.3 334 11.9 100850 77
2001-12-04 10:00:07 51°9.29 2°36.568 23.1 342 11.9 100850 77
2001-12-04 10:00:12 51°9.285 2°36.537 21.7 342 11.9 100840 77
2001-12-04 10:00:16 51°9.282 2°36.513 21.7 339 11.9 100840 77
2001-12-04 10:00:22 51°9.277 2°36.475 24.4 344 11.9 100850 77
2001-12-04 10:00:27 51°9.273 2°36.444 23.9 340 11.9 100850 77
2001-12-04 10:00:32 51°9.269 2°36.413 23.8 341 11.8 100840 77
2001-12-04 10:00:36 51°9.265 2°36.389 23.7 338 11.8 100840 77
2001-12-04 10:00:42 51°9.26 2°36.351 21.4 340 11.9 100850 76
2001-12-04 10:00:46 51°9.257 2°36.327 23.2 342 11.9 100850 76
2001-12-04 10:00:51 51°9.253 2°36.296 22.6 344 11.8 100840 77
2001-12-04 10:00:57 51°9.248 2°36.259 23.8 347 11.8 100840 77
2001-12-04 10:01:02 51°9.243 2°36.228 24.3 341 11.9 100850 76
2001-12-04 10:01:07 51°9.239 2°36.197 24.3 336 11.9 100850 76
2001-12-04 10:01:11 51°9.236 2°36.172 24 339 11.9 100830 76
2001-12-04 10:01:17 51°9.231 2°36.136 24.4 346 11.9 100830 76
2001-12-04 10:01:21 51°9.227 2°36.111 21.2 337 11.9 100850 76
2001-12-04 10:01:26 51°9.223 2°36.08 23.5 342 11.9 100850 76
2001-12-04 10:01:31 51°9.219 2°36.049 22.5 337 11.9 100830 76
2001-12-04 10:01:37 51°9.214 2°36.012 23.5 336 11.9 100830 76
2001-12-04 10:01:42 51°9.209 2°35.981 24.3 345 11.9 100850 76
2001-12-04 10:01:47 51°9.205 2°35.95 23 341 11.9 100850 76
2001-12-04 10:01:52 51°9.201 2°35.919 21.9 342 11.9 100840 76
2001-12-04 10:01:57 51°9.197 2°35.888 21.4 341 11.9 100840 76
2001-12-04 10:02:02 51°9.192 2°35.856 21.5 341 11.9 100840 76
2001-12-04 10:02:07 51°9.188 2°35.826 21.2 342 11.9 100840 76
2001-12-04 10:02:12 51°9.184 2°35.795 19.9 341 11.9 100840 76
2001-12-04 10:02:17 51°9.179 2°35.763 22 339 11.9 100840 76
2001-12-04 10:02:21 51°9.176 2°35.738 23.1 340 11.9 100850 76
2001-12-04 10:02:27 51°9.171 2°35.701 20.8 337 11.9 100850 76
2001-12-04 10:02:32 51°9.166 2°35.67 20.1 342 11.9 100860 77
2001-12-04 10:02:37 51°9.162 2°35.64 23 339 11.9 100860 77
2001-12-04 10:02:42 51°9.158 2°35.609 21.4 340 11.9 100840 77
2001-12-04 10:02:47 51°9.154 2°35.578 23.1 337 11.9 100840 77
2001-12-04 10:02:52 51°9.15 2°35.547 20.6 335 11.9 100850 77
2001-12-04 10:02:57 51°9.146 2°35.516 20.5 340 11.9 100850 77
2001-12-04 10:03:01 51°9.142 2°35.491 20.4 346 11.9 100860 77
2001-12-04 10:03:07 51°9.138 2°35.454 21.5 342 11.9 100860 77
2001-12-04 10:03:12 51°9.133 2°35.423 22.6 339 11.9 100840 77
2001-12-04 10:03:17 51°9.129 2°35.392 20.6 340 11.9 100840 77
2001-12-04 10:03:22 51°9.124 2°35.362 20.5 340 11.9 100840 77
2001-12-04 10:03:27 51°9.121 2°35.331 20 341 11.9 100840 77
2001-12-04 10:03:31 51°9.117 2°35.306 22 337 11.9 100860 78
2001-12-04 10:03:37 51°9.112 2°35.27 20.8 338 11.9 100860 78
2001-12-04 10:03:42 51°9.107 2°35.238 19.6 338 11.9 100860 77
2001-12-04 10:03:47 51°9.103 2°35.208 19.9 342 11.9 100860 77
2001-12-04 10:03:52 51°9.099 2°35.177 20.1 339 11.9 100850 78
2001-12-04 10:03:57 51°9.095 2°35.146 22.9 344 11.9 100850 78
2001-12-04 10:04:02 51°9.09 2°35.115 21.8 343 11.9 100840 78
2001-12-04 10:04:06 51°9.087 2°35.091 20.8 337 11.9 100840 78
2001-12-04 10:04:12 51°9.082 2°35.054 20 340 11.9 100860 78
2001-12-04 10:04:17 51°9.078 2°35.023 20.3 342 11.9 100860 78
2001-12-04 10:04:22 51°9.073 2°34.992 21 337 11.9 100860 78
2001-12-04 10:04:27 51°9.069 2°34.961 23.6 335 11.9 100860 78
2001-12-04 10:04:32 51°9.065 2°34.93 22.6 338 11.9 100860 78
2001-12-04 10:04:37 51°9.061 2°34.9 20.7 344 11.9 100860 78
2001-12-04 10:04:41 51°9.058 2°34.875 22.7 343 11.9 100860 78
2001-12-04 10:04:47 51°9.052 2°34.838 21 340 11.9 100860 78
2001-12-04 10:04:52 51°9.048 2°34.807 20.4 345 11.9 100850 78
2001-12-04 10:04:57 51°9.044 2°34.776 21 339 11.9 100850 78
2001-12-04 10:05:02 51°9.039 2°34.746 19.2 339 11.9 100850 78
2001-12-04 10:05:07 51°9.035 2°34.715 22.2 336 11.9 100850 78
2001-12-04 10:05:12 51°9.031 2°34.684 22.6 344 11.9 100850 78
2001-12-04 10:05:17 51°9.027 2°34.653 22.8 339 11.9 100850 78
2001-12-04 10:05:22 51°9.023 2°34.622 21.1 341 11.9 100850 78
2001-12-04 10:05:27 51°9.018 2°34.592 20.7 342 11.9 100850 78
2001-12-04 10:05:31 51°9.015 2°34.567 21.4 338 11.9 100860 78
2001-12-04 10:05:37 51°9.01 2°34.53 19.3 340 11.9 100860 78
2001-12-04 10:05:41 51°9.006 2°34.506 22.3 341 11.9 100860 78
2001-12-04 10:05:47 51°9.001 2°34.469 21 342 11.9 100860 78
2001-12-04 10:05:52 51°8.997 2°34.439 21.1 336 11.9 100840 78
2001-12-04 10:05:56 51°8.993 2°34.414 20.5 339 11.9 100840 78
2001-12-04 10:06:02 51°8.989 2°34.377 20.7 336 11.9 100870 78
2001-12-04 10:06:07 51°8.984 2°34.346 21.7 341 11.9 100870 78
2001-12-04 10:06:12 51°8.98 2°34.316 22.5 341 11.9 100850 78
2001-12-04 10:06:17 51°8.976 2°34.285 22.3 338 11.9 100850 78
2001-12-04 10:06:22 51°8.971 2°34.254 21.6 342 11.9 100850 78
2001-12-04 10:06:27 51°8.967 2°34.223 22.4 339 11.9 100850 78
2001-12-04 10:06:31 51°8.963 2°34.199 21.1 339 11.9 100840 78
2001-12-04 10:06:37 51°8.958 2°34.162 21.3 337 11.9 100840 78
2001-12-04 10:06:41 51°8.955 2°34.137 22.5 340 11.9 100860 78
2001-12-04 10:06:47 51°8.95 2°34.101 20.8 338 11.9 100860 78
2001-12-04 10:06:52 51°8.946 2°34.07 22.7 340 11.9 100850 78
2001-12-04 10:06:56 51°8.943 2°34.045 23.8 339 11.9 100850 78
2001-12-04 10:07:02 51°8.937 2°34.008 22.3 339 11.8 100860 78
2001-12-04 10:07:07 51°8.933 2°33.978 22.9 344 11.8 100860 78
2001-12-04 10:07:12 51°8.929 2°33.947 22.9 339 11.9 100870 77
2001-12-04 10:07:17 51°8.924 2°33.917 22.2 335 11.9 100870 77
2001-12-04 10:07:22 51°8.92 2°33.886 23.3 338 11.8 100850 77
2001-12-04 10:07:27 51°8.915 2°33.855 22.1 339 11.8 100850 77
2001-12-04 10:07:32 51°8.911 2°33.824 23.5 338 11.9 100840 77
2001-12-04 10:07:36 51°8.907 2°33.8 21.9 340 11.9 100840 77
2001-12-04 10:07:42 51°8.902 2°33.763 20.2 340 11.9 100840 77
2001-12-04 10:07:47 51°8.898 2°33.733 21.9 340 11.9 100840 77
2001-12-04 10:07:52 51°8.893 2°33.702 20.4 337 11.9 100840 77
2001-12-04 10:07:57 51°8.889 2°33.672 19.3 335 11.9 100840 77
2001-12-04 10:08:02 51°8.884 2°33.641 20.9 334 11.9 100840 77
2001-12-04 10:08:07 51°8.88 2°33.611 20 336 11.9 100840 77
2001-12-04 10:08:12 51°8.875 2°33.58 22 334 11.9 100870 78
2001-12-04 10:08:17 51°8.871 2°33.55 20.9 338 11.9 100870 78
2001-12-04 10:08:22 51°8.866 2°33.521 21.7 341 11.9 100870 78
2001-12-04 10:08:27 51°8.862 2°33.494 21.7 343 11.9 100870 78
2001-12-04 10:08:32 51°8.858 2°33.47 17.9 332 11.9 100870 78
2001-12-04 10:08:37 51°8.855 2°33.447 18.5 334 11.9 100870 78
2001-12-04 10:08:41 51°8.852 2°33.43 17.9 338 11.9 100870 78
2001-12-04 10:08:47 51°8.848 2°33.407 17.3 338 11.9 100870 78
2001-12-04 10:08:52 51°8.845 2°33.389 19 343 11.8 100860 78
2001-12-04 10:08:57 51°8.842 2°33.371 18 339 11.8 100860 78
2001-12-04 10:09:02 51°8.839 2°33.356 15.7 338 11.8 100870 78
2001-12-04 10:09:07 51°8.836 2°33.342 18.7 339 11.8 100870 78
2001-12-04 10:09:12 51°8.833 2°33.329 17.2 340 11.8 100890 78
2001-12-04 10:09:17 51°8.831 2°33.317 14.5 340 11.8 100890 78
2001-12-04 10:09:22 51°8.829 2°33.307 14.8 342 11.8 100870 78
2001-12-04 10:09:27 51°8.827 2°33.299 15.4 349 11.8 100870 78
2001-12-04 10:09:32 51°8.826 2°33.292 15.1 347 11.8 100890 78
2001-12-04 10:09:37 51°8.825 2°33.287 14.5 352 11.8 100890 78
2001-12-04 10:09:42 51°8.824 2°33.284 13.7 347 11.8 100880 78
2001-12-04 10:09:47 51°8.823 2°33.282 14.3 353 11.8 100880 78
2001-12-04 10:09:52 51°8.822 2°33.282 13.7 357 11.8 100870 78
2001-12-04 10:09:57 51°8.82 2°33.282 14.1 356 11.8 100870 78
2001-12-04 10:10:02 51°8.82 2°33.282 13.2 355 11.8 100880 78
2001-12-04 10:10:08 51°8.818 2°33.283 13.8 6 11.8 100880 78
2001-12-04 10:10:12 51°8.818 2°33.284 14.2 2 11.8 100890 78
2001-12-04 10:10:18 51°8.816 2°33.284 14.6 11 11.8 100890 78
2001-12-04 10:10:23 51°8.815 2°33.285 13 5 11.8 100880 78
2001-12-04 10:10:28 51°8.814 2°33.286 14.8 13 11.8 100880 78
2001-12-04 10:10:33 51°8.812 2°33.287 13.8 16 11.8 100880 78
2001-12-04 10:10:38 51°8.811 2°33.289 12.3 18 11.8 100880 78
2001-12-04 10:10:42 51°8.81 2°33.29 13 25 11.8 100880 78
2001-12-04 10:10:47 51°8.808 2°33.292 7.7 31 11.8 100880 78
2001-12-04 10:10:52 51°8.807 2°33.294 12.6 26 11.8 100880 78
2001-12-04 10:10:57 51°8.805 2°33.295 8.6 36 11.8 100880 78
2001-12-04 10:11:02 51°8.804 2°33.296 7.7 29 11.8 100880 78
2001-12-04 10:11:08 51°8.803 2°33.295 9.6 25 11.8 100880 78
2001-12-04 10:11:12 51°8.803 2°33.293 10.3 20 11.8 100890 78
2001-12-04 10:11:17 51°8.804 2°33.29 14.7 23 11.8 100890 78
2001-12-04 10:11:22 51°8.804 2°33.287 14.5 16 11.8 100880 78
2001-12-04 10:11:28 51°8.804 2°33.283 14.5 17 11.8 100880 78
2001-12-04 10:11:33 51°8.804 2°33.281 15.9 12 11.8 100890 78
2001-12-04 10:11:37 51°8.804 2°33.279 16.3 16 11.8 100890 78
2001-12-04 10:11:41 51°8.805 2°33.277 14.1 22 11.8 100880 78
2001-12-04 10:11:47 51°8.805 2°33.274 10.7 27 11.8 100880 78
2001-12-04 10:11:52 51°8.805 2°33.272 8 30 11.8 100880 78
2001-12-04 10:11:57 51°8.805 2°33.269 9.5 29 11.8 100880 78
2001-12-04 10:12:02 51°8.805 2°33.267 9.3 29 11.8 100880 78
2001-12-04 10:12:07 51°8.805 2°33.265 7.5 32 11.8 100880 78
2001-12-04 10:12:11 51°8.805 2°33.264 7.7 28 11.8 100880 78
2001-12-04 10:12:17 51°8.805 2°33.262 10.1 15 11.8 100880 78
2001-12-04 10:12:21 51°8.805 2°33.261 10.2 33 11.8 100890 78
2001-12-04 10:12:27 51°8.805 2°33.259 10.5 27 11.8 100890 78
2001-12-04 10:12:32 51°8.805 2°33.258 9.3 250 11.8 100880 78
2001-12-04 10:12:37 51°8.805 2°33.257 8.6 350 11.8 100880 78
2001-12-04 10:12:42 51°8.805 2°33.256 8.6 330 11.8 100880 78
2001-12-04 10:12:47 51°8.805 2°33.255 7.8 351 11.8 100880 78
2001-12-04 10:12:52 51°8.805 2°33.255 7.8 248 11.8 100900 78
2001-12-04 10:12:57 51°8.805 2°33.254 6.3 324 11.8 100900 78
2001-12-04 10:13:01 51°8.805 2°33.253 4.1 344 11.8 100910 78
2001-12-04 10:13:07 51°8.805 2°33.253 3.8 129 11.8 100910 78
2001-12-04 10:13:12 51°8.805 2°33.252 3.6 119 11.8 100910 78
2001-12-04 10:13:17 51°8.805 2°33.252 4.1 293 11.8 100910 78
2001-12-04 10:13:21 51°8.804 2°33.251 4.1 93 11.8 100900 78
2001-12-04 10:13:27 51°8.804 2°33.251 2.9 37 11.8 100900 78
2001-12-04 10:13:32 51°8.804 2°33.251 2.1 138 11.8 100910 78
2001-12-04 10:13:37 51°8.804 2°33.251 0.4 120 11.8 100910 78
2001-12-04 10:13:41 51°8.804 2°33.251 3 29 11.8 100910 78
2001-12-04 10:13:47 51°8.803 2°33.251 1 36 11.8 100910 78
2001-12-04 10:13:52 51°8.803 2°33.251 1 52 11.8 100910 78
2001-12-04 10:13:57 51°8.802 2°33.251 0.5 55 11.8 100910 78
2001-12-04 10:14:02 51°8.802 2°33.251 0.8 109 11.8 100880 78
2001-12-04 10:14:07 51°8.801 2°33.25 1.5 108 11.8 100880 78
2001-12-04 10:14:12 51°8.8 2°33.25 1.6 69 11.8 100910 78
2001-12-04 10:14:17 51°8.8 2°33.25 0.7 66 11.8 100910 78
2001-12-04 10:14:22 51°8.799 2°33.251 1.1 70 11.7 100920 78
2001-12-04 10:14:27 51°8.799 2°33.251 2.1 135 11.7 100920 78
2001-12-04 10:14:32 51°8.798 2°33.25 1.1 74 11.8 100920 78
2001-12-04 10:14:37 51°8.798 2°33.251 1.3 64 11.8 100920 78
2001-12-04 10:14:41 51°8.797 2°33.251 0.3 72 11.7 100920 78
2001-12-04 10:14:47 51°8.796 2°33.251 1.4 80 11.7 100920 78
2001-12-04 10:14:52 51°8.796 2°33.25 1 95 11.7 100910 78
2001-12-04 10:14:57 51°8.795 2°33.251 1.6 78 11.7 100910 78
2001-12-04 10:15:02 51°8.794 2°33.25 1.2 73 11.7 100930 78
2001-12-04 10:15:07 51°8.794 2°33.251 3.7 104 11.7 100930 78
2001-12-04 10:15:12 51°8.793 2°33.25 1.6 97 11.7 100920 78
2001-12-04 10:15:16 51°8.793 2°33.25 6.3 91 11.7 100920 78
2001-12-04 10:15:22 51°8.792 2°33.25 1.1 60 11.7 100910 78
2001-12-04 10:15:27 51°8.791 2°33.251 3 74 11.7 100910 78
2001-12-04 10:15:32 51°8.791 2°33.25 5.1 82 11.7 100910 78
2001-12-04 10:15:37 51°8.79 2°33.25 2.1 69 11.7 100910 78
2001-12-04 10:15:41 51°8.79 2°33.251 2.6 74 11.7 100920 78
2001-12-04 10:15:47 51°8.789 2°33.251 3 86 11.7 100920 78
2001-12-04 10:15:52 51°8.789 2°33.251 3.8 96 11.7 100920 78
2001-12-04 10:15:57 51°8.788 2°33.251 3.4 109 11.7 100920 78
2001-12-04 10:16:02 51°8.787 2°33.251 3.1 83 11.7 100920 78
2001-12-04 10:16:07 51°8.787 2°33.251 1.9 78 11.7 100920 78
2001-12-04 10:16:12 51°8.786 2°33.251 1.9 84 11.7 100930 78
2001-12-04 10:16:16 51°8.786 2°33.251 3.9 72 11.7 100930 78
2001-12-04 10:16:22 51°8.785 2°33.251 1.4 82 11.7 100910 78
2001-12-04 10:16:27 51°8.785 2°33.251 1.8 76 11.7 100910 78
2001-12-04 10:16:32 51°8.784 2°33.251 1.8 78 11.7 100910 78
2001-12-04 10:16:37 51°8.784 2°33.251 1.1 63 11.7 100910 78
2001-12-04 10:16:42 51°8.783 2°33.251 0.3 72 11.7 100910 78
2001-12-04 10:16:47 51°8.782 2°33.251 3.4 104 11.7 100910 78
2001-12-04 10:16:52 51°8.782 2°33.251 2.8 100 11.7 100930 78
2001-12-04 10:16:57 51°8.781 2°33.251 4.4 81 11.7 100930 78
2001-12-04 10:17:01 51°8.781 2°33.251 4.1 75 11.7 100920 78
2001-12-04 10:17:07 51°8.78 2°33.251 2.6 83 11.7 100920 78
2001-12-04 10:17:12 51°8.78 2°33.25 2.2 85 11.7 100910 78
2001-12-04 10:17:17 51°8.779 2°33.25 2.9 86 11.7 100910 78
2001-12-04 10:17:21 51°8.779 2°33.25 1.8 82 11.7 100920 78
2001-12-04 10:17:27 51°8.778 2°33.25 1.8 83 11.7 100920 78
2001-12-04 10:17:32 51°8.778 2°33.25 1.5 67 11.7 100920 78
2001-12-04 10:17:36 51°8.777 2°33.249 1.4 56 11.7 100920 78
2001-12-04 10:17:42 51°8.777 2°33.249 1.6 75 11.7 100910 78
2001-12-04 10:17:47 51°8.776 2°33.249 2.5 112 11.7 100910 78
2001-12-04 10:17:52 51°8.776 2°33.249 1.4 67 11.7 100930 78
2001-12-04 10:17:57 51°8.775 2°33.249 0.6 117 11.7 100930 78
2001-12-04 10:18:02 51°8.775 2°33.249 0.8 55 11.7 100930 78
2001-12-04 10:18:07 51°8.775 2°33.249 1.9 72 11.7 100930 78
2001-12-04 10:18:12 51°8.774 2°33.249 1.8 123 11.7 100930 79
2001-12-04 10:18:16 51°8.774 2°33.248 1.6 87 11.7 100930 79
2001-12-04 10:18:22 51°8.774 2°33.248 0.8 70 11.7 100920 78
2001-12-04 10:18:27 51°8.773 2°33.248 2.6 75 11.7 100920 78
2001-12-04 10:18:32 51°8.773 2°33.248 2.2 54 11.7 100910 79
2001-12-04 10:18:37 51°8.772 2°33.247 2.3 94 11.7 100910 79
2001-12-04 10:18:42 51°8.772 2°33.247 2.1 72 11.7 100910 79
2001-12-04 10:18:46 51°8.771 2°33.247 1.7 64 11.7 100910 79
2001-12-04 10:18:52 51°8.771 2°33.247 1.6 69 11.7 100910 79
2001-12-04 10:18:57 51°8.77 2°33.247 1.3 76 11.7 100910 79
2001-12-04 10:19:02 51°8.77 2°33.246 2.1 79 11.7 100910 79
2001-12-04 10:19:07 51°8.769 2°33.246 1.7 100 11.7 100910 79
2001-12-04 10:19:12 51°8.769 2°33.246 1 78 11.7 100940 79
2001-12-04 10:19:17 51°8.768 2°33.246 1.2 69 11.7 100940 79
2001-12-04 10:19:21 51°8.768 2°33.245 1.3 24 11.7 100920 79
2001-12-04 10:19:27 51°8.767 2°33.245 3.3 73 11.7 100920 79
2001-12-04 10:19:32 51°8.766 2°33.245 1.1 349 11.7 100910 79
2001-12-04 10:19:37 51°8.766 2°33.244 0.5 71 11.7 100910 79
2001-12-04 10:19:42 51°8.766 2°33.244 1.2 102 11.7 100930 79
2001-12-04 10:19:45 51°8.765 2°33.244 0.3 87 11.7 100930 79
2001-12-04 10:19:52 51°8.765 2°33.244 1 50 11.7 100920 78
2001-12-04 10:19:57 51°8.764 2°33.243 1.7 63 11.7 100920 78
2001-12-04 10:20:01 51°8.764 2°33.243 1.7 359 11.7 100930 78
2001-12-04 10:20:07 51°8.763 2°33.243 0.6 62 11.7 100930 78
2001-12-04 10:20:12 51°8.763 2°33.243 0.8 128 11.7 100930 78
2001-12-04 10:20:17 51°8.763 2°33.243 1.5 75 11.7 100930 78
2001-12-04 10:20:21 51°8.762 2°33.243 1.2 124 11.7 100930 78
2001-12-04 10:20:27 51°8.762 2°33.243 0.6 90 11.7 100930 78
2001-12-04 10:20:31 51°8.762 2°33.243 0.5 48 11.7 100920 78
2001-12-04 10:20:37 51°8.761 2°33.242 0.7 47 11.7 100920 78
2001-12-04 10:20:42 51°8.76 2°33.242 0.4 59 11.7 100920 78
2001-12-04 10:20:46 51°8.76 2°33.243 3.1 125 11.7 100920 78
2001-12-04 10:20:52 51°8.76 2°33.243 3.1 97 11.7 100930 78
2001-12-04 10:20:57 51°8.759 2°33.243 1.7 35 11.7 100930 78
2001-12-04 10:21:02 51°8.758 2°33.243 1 58 11.7 100930 79
2001-12-04 10:21:07 51°8.758 2°33.243 1.3 43 11.7 100930 79
2001-12-04 10:21:12 51°8.757 2°33.242 2.1 108 11.7 100930 78
2001-12-04 10:21:17 51°8.757 2°33.243 1.1 46 11.7 100930 78
2001-12-04 10:21:22 51°8.756 2°33.242 1.3 53 11.7 100920 78
2001-12-04 10:21:27 51°8.756 2°33.243 1.5 57 11.7 100920 78
2001-12-04 10:21:32 51°8.755 2°33.242 0.9 51 11.7 100920 78
2001-12-04 10:21:37 51°8.754 2°33.242 0.4 83 11.7 100920 78
2001-12-04 10:21:41 51°8.754 2°33.242 1.4 71 11.7 100940 78
2001-12-04 10:21:47 51°8.753 2°33.242 3.3 62 11.7 100940 78
2001-12-04 10:21:52 51°8.752 2°33.243 0.6 59 11.7 100920 77
2001-12-04 10:21:56 51°8.752 2°33.243 2.3 97 11.7 100920 77
2001-12-04 10:22:01 51°8.752 2°33.243 1.4 51 11.7 100930 77
2001-12-04 10:22:07 51°8.751 2°33.243 1.1 62 11.7 100930 77
2001-12-04 10:22:12 51°8.75 2°33.243 0.4 57 11.7 100920 77
2001-12-04 10:22:17 51°8.75 2°33.243 1.5 72 11.7 100920 77
2001-12-04 10:22:22 51°8.749 2°33.243 0.7 93 11.7 100920 77
2001-12-04 10:22:27 51°8.748 2°33.243 3 87 11.7 100920 77
2001-12-04 10:22:32 51°8.748 2°33.243 0.9 67 11.7 100930 77
2001-12-04 10:22:37 51°8.747 2°33.243 1.3 58 11.7 100930 77
2001-12-04 10:22:42 51°8.747 2°33.244 2.3 63 11.7 100920 78
2001-12-04 10:22:47 51°8.746 2°33.243 1.6 21 11.7 100920 78
2001-12-04 10:22:52 51°8.746 2°33.245 0.9 354 11.7 100930 78
2001-12-04 10:22:57 51°8.745 2°33.245 1.6 118 11.7 100930 78
2001-12-04 10:23:02 51°8.744 2°33.245 1.2 51 11.7 100930 77
2001-12-04 10:23:07 51°8.744 2°33.245 0.7 131 11.7 100930 77
2001-12-04 10:23:12 51°8.743 2°33.246 0.8 60 11.7 100930 78
2001-12-04 10:23:17 51°8.742 2°33.246 0.7 320 11.7 100930 78
2001-12-04 10:23:22 51°8.741 2°33.246 1.5 68 11.7 100910 77
2001-12-04 10:23:27 51°8.74 2°33.247 0.9 71 11.7 100910 77
2001-12-04 10:23:32 51°8.74 2°33.247 0.3 68 11.7 100930 77
2001-12-04 10:23:37 51°8.739 2°33.248 0.7 61 11.7 100930 77
2001-12-04 10:23:42 51°8.738 2°33.248 2.2 66 11.7 100920 77
2001-12-04 10:23:47 51°8.738 2°33.248 1.8 93 11.7 100920 77
2001-12-04 10:23:52 51°8.737 2°33.248 2.5 131 11.7 100920 77
2001-12-04 10:23:57 51°8.736 2°33.249 1.7 86 11.7 100920 77
2001-12-04 10:24:01 51°8.736 2°33.249 2.3 56 11.7 100930 77
2001-12-04 10:24:07 51°8.735 2°33.249 0.2 65 11.7 100930 77
2001-12-04 10:24:12 51°8.734 2°33.25 1.4 67 11.7 100920 76
2001-12-04 10:24:17 51°8.733 2°33.25 1.2 114 11.7 100920 76
2001-12-04 10:24:21 51°8.733 2°33.25 2.8 73 11.7 100920 76
2001-12-04 10:24:27 51°8.732 2°33.25 1.2 65 11.7 100920 76
2001-12-04 10:24:32 51°8.731 2°33.251 1.9 102 11.7 100930 76
2001-12-04 10:24:37 51°8.731 2°33.251 1.9 73 11.7 100930 76
2001-12-04 10:24:42 51°8.73 2°33.251 1.8 92 11.7 100940 77
2001-12-04 10:24:47 51°8.73 2°33.251 1.6 88 11.7 100940 77
2001-12-04 10:24:52 51°8.73 2°33.251 2.9 27 11.8 100940 77
2001-12-04 10:24:57 51°8.731 2°33.252 1.5 119 11.8 100940 77
2001-12-04 10:25:02 51°8.732 2°33.251 0.4 50 11.7 100930 77
2001-12-04 10:25:07 51°8.733 2°33.25 3.3 61 11.7 100930 77
2001-12-04 10:25:11 51°8.735 2°33.25 3.7 342 11.7 100930 77
2001-12-04 10:25:17 51°8.738 2°33.249 4.2 134 11.7 100930 77
2001-12-04 10:25:21 51°8.74 2°33.247 5.3 101 11.7 100920 78
2001-12-04 10:25:27 51°8.744 2°33.244 5.8 168 11.7 100920 78
2001-12-04 10:25:32 51°8.748 2°33.24 8.8 161 11.7 100920 78
2001-12-04 10:25:36 51°8.751 2°33.237 6.5 256 11.7 100920 78
2001-12-04 10:25:42 51°8.755 2°33.233 7.6 287 11.7 100930 77
2001-12-04 10:25:47 51°8.759 2°33.228 9 19 11.7 100930 77
2001-12-04 10:25:52 51°8.763 2°33.222 10.8 5 11.7 100920 78
2001-12-04 10:25:57 51°8.767 2°33.217 9.6 223 11.7 100920 78
2001-12-04 10:26:02 51°8.771 2°33.21 6.8 27 11.7 100920 78
2001-12-04 10:26:06 51°8.774 2°33.206 10.8 27 11.7 100920 78
2001-12-04 10:26:12 51°8.779 2°33.197 12.4 4 11.7 100920 78
2001-12-04 10:26:17 51°8.783 2°33.19 13 28 11.7 100920 78
2001-12-04 10:26:22 51°8.788 2°33.183 10.1 20 11.7 100930 78
2001-12-04 10:26:27 51°8.792 2°33.176 11.8 17 11.7 100930 78
2001-12-04 10:26:32 51°8.796 2°33.17 12.6 29 11.7 100910 78
2001-12-04 10:26:37 51°8.799 2°33.164 10.7 14 11.7 100910 78
2001-12-04 10:26:41 51°8.802 2°33.158 9.3 29 11.7 100920 77
2001-12-04 10:26:47 51°8.806 2°33.151 9.5 20 11.7 100920 77
2001-12-04 10:26:52 51°8.81 2°33.144 9.2 27 11.7 100900 76
2001-12-04 10:26:57 51°8.813 2°33.138 9.3 37 11.7 100900 76
2001-12-04 10:27:02 51°8.817 2°33.132 12 33 11.7 100920 76
2001-12-04 10:27:07 51°8.82 2°33.125 9.1 32 11.7 100920 76
2001-12-04 10:27:12 51°8.823 2°33.119 11.6 19 11.7 100920 76
2001-12-04 10:27:17 51°8.826 2°33.113 11.5 36 11.7 100920 76
2001-12-04 10:27:22 51°8.83 2°33.106 8.4 31 11.8 100920 76
2001-12-04 10:27:27 51°8.833 2°33.1 9 33 11.8 100920 76
2001-12-04 10:27:32 51°8.836 2°33.093 8.4 26 11.8 100910 76
2001-12-04 10:27:37 51°8.839 2°33.087 7 36 11.8 100910 76
2001-12-04 10:27:42 51°8.843 2°33.08 10.9 27 11.8 100910 76
2001-12-04 10:27:47 51°8.846 2°33.074 7.3 31 11.8 100910 76
2001-12-04 10:27:51 51°8.848 2°33.069 8.8 29 11.8 100910 76
2001-12-04 10:27:57 51°8.852 2°33.061 11 21 11.8 100910 76
2001-12-04 10:28:02 51°8.855 2°33.054 9.9 21 11.8 100910 77
2001-12-04 10:28:07 51°8.858 2°33.048 11.9 30 11.8 100910 77
2001-12-04 10:28:12 51°8.861 2°33.041 7.5 26 11.8 100920 77
2001-12-04 10:28:17 51°8.865 2°33.034 8.5 22 11.8 100920 77
2001-12-04 10:28:22 51°8.867 2°33.028 8.9 21 11.8 100910 77
2001-12-04 10:28:27 51°8.87 2°33.022 7.7 22 11.8 100910 77
2001-12-04 10:28:32 51°8.873 2°33.015 8.5 26 11.8 100910 77
2001-12-04 10:28:37 51°8.875 2°33.01 10.5 28 11.8 100910 77
2001-12-04 10:28:42 51°8.878 2°33.005 7.6 26 11.8 100900 77
2001-12-04 10:28:47 51°8.88 2°33 8.8 25 11.8 100900 77
2001-12-04 10:28:51 51°8.882 2°32.996 10 24 11.8 100910 77
2001-12-04 10:28:57 51°8.884 2°32.991 9.3 26 11.8 100910 77
2001-12-04 10:29:01 51°8.886 2°32.987 8.2 31 11.8 100920 77
2001-12-04 10:29:07 51°8.888 2°32.983 8.3 28 11.8 100920 77
2001-12-04 10:29:11 51°8.889 2°32.981 12.2 18 11.8 100930 77
2001-12-04 10:29:17 51°8.889 2°32.979 10.7 335 11.8 100930 77
2001-12-04 10:29:22 51°8.889 2°32.979 9 317 11.8 100910 77
2001-12-04 10:29:27 51°8.889 2°32.979 10 238 11.8 100910 77
2001-12-04 10:29:32 51°8.888 2°32.979 7.2 3 11.8 100920 77
2001-12-04 10:29:36 51°8.888 2°32.979 7.4 137 11.8 100920 77
2001-12-04 10:29:42 51°8.887 2°32.98 6.4 267 11.8 100930 77
2001-12-04 10:29:47 51°8.886 2°32.981 6 356 11.8 100930 77
2001-12-04 10:29:52 51°8.885 2°32.981 5.2 171 11.8 100930 77
2001-12-04 10:29:57 51°8.884 2°32.982 3.2 23 11.8 100930 77
2001-12-04 10:30:03 51°8.884 2°32.982 4.4 352 11.8 100940 77
2001-12-04 10:30:08 51°8.883 2°32.983 1.6 48 11.8 100940 77
2001-12-04 10:30:13 51°8.882 2°32.984 2.5 71 11.8 100940 77
2001-12-04 10:30:18 51°8.881 2°32.984 2.2 18 11.8 100940 77
2001-12-04 10:30:22 51°8.881 2°32.985 0.5 57 11.7 100930 77
2001-12-04 10:30:28 51°8.88 2°32.985 0.4 52 11.7 100930 77
2001-12-04 10:30:32 51°8.879 2°32.985 0.7 65 11.7 100940 78
2001-12-04 10:30:37 51°8.879 2°32.985 1.8 78 11.7 100940 78
2001-12-04 10:30:42 51°8.878 2°32.986 0.9 68 11.7 100950 77
2001-12-04 10:30:47 51°8.878 2°32.986 2.3 112 11.7 100950 77
2001-12-04 10:30:52 51°8.877 2°32.986 1.9 83 11.7 100950 78
2001-12-04 10:30:56 51°8.876 2°32.987 3.1 78 11.7 100950 78
2001-12-04 10:31:02 51°8.876 2°32.987 1.5 93 11.7 100940 78
2001-12-04 10:31:07 51°8.875 2°32.988 2.8 70 11.7 100940 78
2001-12-04 10:31:12 51°8.875 2°32.988 0.9 59 11.7 100950 78
2001-12-04 10:31:17 51°8.874 2°32.988 0.6 95 11.7 100950 78
2001-12-04 10:31:21 51°8.874 2°32.988 2.9 77 11.7 100950 78
2001-12-04 10:31:26 51°8.873 2°32.989 3.7 77 11.7 100950 78
2001-12-04 10:31:32 51°8.872 2°32.99 4.2 87 11.7 100940 79
2001-12-04 10:31:37 51°8.872 2°32.989 3.4 75 11.7 100940 79
2001-12-04 10:31:41 51°8.871 2°32.99 7.4 92 11.7 100950 79
2001-12-04 10:31:47 51°8.871 2°32.991 2.2 75 11.7 100950 79
2001-12-04 10:31:52 51°8.871 2°32.991 5.9 86 11.7 100950 79
2001-12-04 10:31:57 51°8.87 2°32.991 2.7 108 11.7 100950 79
2001-12-04 10:32:02 51°8.869 2°32.991 1.5 77 11.6 100950 79
2001-12-04 10:32:07 51°8.869 2°32.992 3.7 79 11.6 100950 79
2001-12-04 10:32:12 51°8.868 2°32.992 2.4 81 11.6 100950 79
2001-12-04 10:32:17 51°8.868 2°32.993 3.5 77 11.6 100950 79
2001-12-04 10:32:21 51°8.868 2°32.993 1.9 70 11.6 100940 79
2001-12-04 10:32:27 51°8.867 2°32.993 1.8 56 11.6 100940 79
2001-12-04 10:32:32 51°8.867 2°32.994 0.5 83 11.6 100940 79
2001-12-04 10:32:37 51°8.867 2°32.994 1.7 69 11.6 100940 79
2001-12-04 10:32:42 51°8.866 2°32.995 0.7 76 11.6 100950 78
2001-12-04 10:32:47 51°8.866 2°32.995 2.5 103 11.6 100950 78
2001-12-04 10:32:52 51°8.866 2°32.996 1.8 116 11.6 100940 78
2001-12-04 10:32:57 51°8.865 2°32.996 1.1 54 11.6 100940 78
2001-12-04 10:33:02 51°8.865 2°32.996 2.1 70 11.6 100940 79
2001-12-04 10:33:07 51°8.865 2°32.996 1 76 11.6 100940 79
2001-12-04 10:33:12 51°8.865 2°32.996 1.3 66 11.6 100940 79
2001-12-04 10:33:17 51°8.864 2°32.996 0.6 70 11.6 100940 79
2001-12-04 10:33:21 51°8.864 2°32.997 1 59 11.6 100950 79
2001-12-04 10:33:27 51°8.864 2°32.996 1.8 61 11.6 100950 79
2001-12-04 10:33:32 51°8.863 2°32.997 1.6 64 11.6 100940 79
2001-12-04 10:33:37 51°8.863 2°32.997 0.5 60 11.6 100940 79
2001-12-04 10:33:42 51°8.863 2°32.997 2.4 93 11.6 100950 79
2001-12-04 10:33:47 51°8.863 2°32.997 1 76 11.6 100950 79
2001-12-04 10:33:52 51°8.862 2°32.997 0.5 62 11.6 100950 79
2001-12-04 10:33:56 51°8.862 2°32.998 3.4 112 11.6 100950 79
2001-12-04 10:34:02 51°8.862 2°32.998 0.8 50 11.6 100940 79
2001-12-04 10:34:07 51°8.862 2°32.998 3.5 95 11.6 100940 79
2001-12-04 10:34:12 51°8.862 2°32.999 1.3 83 11.6 100950 79
2001-12-04 10:34:17 51°8.861 2°32.998 0.5 71 11.6 100950 79
2001-12-04 10:34:22 51°8.861 2°32.999 0.8 119 11.6 100950 79
2001-12-04 10:34:26 51°8.861 2°32.999 2.6 70 11.6 100950 79
2001-12-04 10:34:32 51°8.86 2°33 1.4 53 11.5 100960 78
2001-12-04 10:34:37 51°8.86 2°33 1.7 319 11.5 100960 78
2001-12-04 10:34:42 51°8.86 2°33 1.4 50 11.5 100950 78
2001-12-04 10:34:47 51°8.86 2°33.001 1.3 55 11.5 100950 78
2001-12-04 10:34:52 51°8.859 2°33.001 0.9 46 11.6 100950 78
2001-12-04 10:34:57 51°8.859 2°33.001 1.1 120 11.6 100950 78
2001-12-04 10:35:02 51°8.859 2°33.002 0.4 323 11.6 100940 78
2001-12-04 10:35:07 51°8.859 2°33.002 2.5 72 11.6 100940 78
2001-12-04 10:35:12 51°8.859 2°33.003 1 42 11.6 100940 78
2001-12-04 10:35:17 51°8.859 2°33.002 0.9 64 11.6 100940 78
2001-12-04 10:35:22 51°8.858 2°33.003 1.5 59 11.6 100950 78
2001-12-04 10:35:26 51°8.858 2°33.003 2 59 11.6 100950 78
2001-12-04 10:35:31 51°8.858 2°33.004 3.3 65 11.6 100950 78
2001-12-04 10:35:36 51°8.858 2°33.004 1.3 87 11.6 100950 78
2001-12-04 10:35:42 51°8.858 2°33.004 0.7 62 11.6 100950 78
2001-12-04 10:35:47 51°8.858 2°33.004 1.3 57 11.6 100950 78
2001-12-04 10:35:52 51°8.857 2°33.005 0.5 65 11.6 100930 78
2001-12-04 10:35:57 51°8.857 2°33.005 2 73 11.6 100930 78
2001-12-04 10:36:02 51°8.857 2°33.005 1.4 17 11.6 100940 78
2001-12-04 10:36:07 51°8.857 2°33.006 1.5 65 11.6 100940 78
2001-12-04 10:36:12 51°8.857 2°33.006 1.9 63 11.6 100950 78
2001-12-04 10:36:17 51°8.857 2°33.006 0.8 54 11.6 100950 78
2001-12-04 10:36:22 51°8.857 2°33.007 0.9 55 11.6 100950 79
2001-12-04 10:36:27 51°8.856 2°33.007 2.1 39 11.6 100950 79
2001-12-04 10:36:32 51°8.856 2°33.007 0.8 59 11.6 100950 79
2001-12-04 10:36:37 51°8.856 2°33.008 2.2 119 11.6 100950 79
2001-12-04 10:36:41 51°8.856 2°33.008 2 41 11.5 100950 79
2001-12-04 10:36:47 51°8.855 2°33.008 1.3 61 11.5 100950 79
2001-12-04 10:36:52 51°8.855 2°33.008 1.3 68 11.5 100950 79
2001-12-04 10:36:57 51°8.855 2°33.009 1.8 53 11.5 100950 79
2001-12-04 10:37:01 51°8.855 2°33.009 2.1 52 11.6 100950 79
2001-12-04 10:37:07 51°8.854 2°33.009 1.1 84 11.6 100950 79
2001-12-04 10:37:12 51°8.854 2°33.009 2.6 36 11.5 100940 79
2001-12-04 10:37:16 51°8.854 2°33.009 3.8 84 11.5 100940 79
2001-12-04 10:37:22 51°8.854 2°33.009 1.3 60 11.5 100940 79
2001-12-04 10:37:27 51°8.853 2°33.01 1.3 327 11.5 100940 79
2001-12-04 10:37:32 51°8.853 2°33.01 1.5 26 11.5 100960 79
2001-12-04 10:37:37 51°8.853 2°33.01 1.6 103 11.5 100960 79
2001-12-04 10:37:42 51°8.853 2°33.011 1.3 33 11.5 100960 79
2001-12-04 10:37:47 51°8.853 2°33.012 0.8 62 11.5 100960 79
2001-12-04 10:37:52 51°8.853 2°33.012 0.9 66 11.5 100920 79
2001-12-04 10:37:57 51°8.852 2°33.013 2.3 98 11.5 100920 79
2001-12-04 10:38:02 51°8.852 2°33.013 0.8 65 11.5 100960 78
2001-12-04 10:38:07 51°8.852 2°33.014 1.2 51 11.5 100960 78
2001-12-04 10:38:12 51°8.851 2°33.014 2.2 51 11.5 100960 78
2001-12-04 10:38:17 51°8.851 2°33.015 2.6 95 11.5 100960 78